sensor_id;sensor_type;location;lat;lon;timestamp;P1;durP1;ratioP1;P2;durP2;ratioP2
72117;SDS011;59992;47.490;8.736;2023-03-24T00:02:27;5.40;;;2.70;;
72117;SDS011;59992;47.490;8.736;2023-03-24T00:05:16;5.30;;;2.60;;
72117;SDS011;59992;47.490;8.736;2023-03-24T00:08:06;6.40;;;3.20;;
72117;SDS011;59992;47.490;8.736;2023-03-24T00:10:55;4.80;;;2.70;;
72117;SDS011;59992;47.490;8.736;2023-03-24T00:13:46;5.50;;;2.60;;
72117;SDS011;59992;47.490;8.736;2023-03-24T00:16:35;4.10;;;2.40;;
72117;SDS011;59992;47.490;8.736;2023-03-24T00:19:24;4.40;;;2.60;;
72117;SDS011;59992;47.490;8.736;2023-03-24T00:22:12;3.90;;;2.60;;
72117;SDS011;59992;47.490;8.736;2023-03-24T00:25:04;5.30;;;2.60;;
72117;SDS011;59992;47.490;8.736;2023-03-24T00:27:52;3.80;;;2.30;;
72117;SDS011;59992;47.490;8.736;2023-03-24T00:30:41;5.50;;;2.70;;
72117;SDS011;59992;47.490;8.736;2023-03-24T00:33:37;3.70;;;2.30;;
72117;SDS011;59992;47.490;8.736;2023-03-24T00:36:26;4.40;;;2.60;;
72117;SDS011;59992;47.490;8.736;2023-03-24T00:39:15;2.90;;;1.90;;
72117;SDS011;59992;47.490;8.736;2023-03-24T00:42:04;5.40;;;2.70;;
72117;SDS011;59992;47.490;8.736;2023-03-24T00:44:53;4.90;;;2.60;;
72117;SDS011;59992;47.490;8.736;2023-03-24T00:47:41;4.80;;;2.90;;
72117;SDS011;59992;47.490;8.736;2023-03-24T00:50:30;4.50;;;2.50;;
72117;SDS011;59992;47.490;8.736;2023-03-24T00:53:19;5.10;;;2.70;;
72117;SDS011;59992;47.490;8.736;2023-03-24T00:56:11;5.20;;;2.70;;
72117;SDS011;59992;47.490;8.736;2023-03-24T00:59:01;5.60;;;2.40;;
72117;SDS011;59992;47.490;8.736;2023-03-24T01:01:49;5.80;;;2.60;;
72117;SDS011;59992;47.490;8.736;2023-03-24T01:04:37;3.90;;;2.50;;
72117;SDS011;59992;47.490;8.736;2023-03-24T01:07:27;4.70;;;2.60;;
72117;SDS011;59992;47.490;8.736;2023-03-24T01:10:16;5.30;;;2.10;;
72117;SDS011;59992;47.490;8.736;2023-03-24T01:13:05;5.30;;;2.90;;
72117;SDS011;59992;47.490;8.736;2023-03-24T01:15:54;5.30;;;2.80;;
72117;SDS011;59992;47.490;8.736;2023-03-24T01:18:43;4.60;;;2.60;;
72117;SDS011;59992;47.490;8.736;2023-03-24T01:21:31;4.70;;;2.60;;
72117;SDS011;59992;47.490;8.736;2023-03-24T01:24:20;6.70;;;3.00;;
72117;SDS011;59992;47.490;8.736;2023-03-24T01:27:11;4.10;;;2.50;;
72117;SDS011;59992;47.490;8.736;2023-03-24T01:30:00;5.40;;;2.90;;
72117;SDS011;59992;47.490;8.736;2023-03-24T01:32:49;4.40;;;2.60;;
72117;SDS011;59992;47.490;8.736;2023-03-24T01:35:38;5.80;;;3.20;;
72117;SDS011;59992;47.490;8.736;2023-03-24T01:38:27;5.60;;;3.20;;
72117;SDS011;59992;47.490;8.736;2023-03-24T01:41:16;5.60;;;2.80;;
72117;SDS011;59992;47.490;8.736;2023-03-24T01:47:14;4.70;;;2.10;;
72117;SDS011;59992;47.490;8.736;2023-03-24T01:50:03;4.90;;;2.30;;
72117;SDS011;59992;47.490;8.736;2023-03-24T01:52:52;4.70;;;2.70;;
72117;SDS011;59992;47.490;8.736;2023-03-24T01:55:41;4.80;;;3.40;;
72117;SDS011;59992;47.490;8.736;2023-03-24T01:58:31;4.00;;;2.40;;
72117;SDS011;59992;47.490;8.736;2023-03-24T02:01:22;5.90;;;3.00;;
72117;SDS011;59992;47.490;8.736;2023-03-24T02:04:12;5.40;;;3.30;;
72117;SDS011;59992;47.490;8.736;2023-03-24T02:07:02;4.90;;;2.60;;
72117;SDS011;59992;47.490;8.736;2023-03-24T02:09:57;5.50;;;2.90;;
72117;SDS011;59992;47.490;8.736;2023-03-24T02:12:45;5.10;;;2.60;;
72117;SDS011;59992;47.490;8.736;2023-03-24T02:15:35;6.70;;;2.50;;
72117;SDS011;59992;47.490;8.736;2023-03-24T02:18:32;4.90;;;2.80;;
72117;SDS011;59992;47.490;8.736;2023-03-24T02:21:56;4.40;;;2.50;;
72117;SDS011;59992;47.490;8.736;2023-03-24T02:25:13;5.50;;;2.60;;
72117;SDS011;59992;47.490;8.736;2023-03-24T02:28:22;5.90;;;2.70;;
72117;SDS011;59992;47.490;8.736;2023-03-24T02:31:23;5.30;;;2.20;;
72117;SDS011;59992;47.490;8.736;2023-03-24T02:38:12;3.20;;;1.90;;
72117;SDS011;59992;47.490;8.736;2023-03-24T02:41:12;3.50;;;2.20;;
72117;SDS011;59992;47.490;8.736;2023-03-24T02:44:09;3.70;;;2.10;;
72117;SDS011;59992;47.490;8.736;2023-03-24T02:47:06;3.70;;;2.00;;
72117;SDS011;59992;47.490;8.736;2023-03-24T02:50:03;5.00;;;2.40;;
72117;SDS011;59992;47.490;8.736;2023-03-24T02:52:59;5.50;;;2.20;;
72117;SDS011;59992;47.490;8.736;2023-03-24T02:55:54;4.50;;;2.40;;
72117;SDS011;59992;47.490;8.736;2023-03-24T02:58:47;4.70;;;2.50;;
72117;SDS011;59992;47.490;8.736;2023-03-24T03:01:40;5.40;;;2.20;;
72117;SDS011;59992;47.490;8.736;2023-03-24T03:04:40;4.20;;;2.60;;
72117;SDS011;59992;47.490;8.736;2023-03-24T03:07:35;5.20;;;2.90;;
72117;SDS011;59992;47.490;8.736;2023-03-24T03:10:25;4.40;;;2.40;;
72117;SDS011;59992;47.490;8.736;2023-03-24T03:13:17;4.70;;;2.90;;
72117;SDS011;59992;47.490;8.736;2023-03-24T03:16:11;5.20;;;2.70;;
72117;SDS011;59992;47.490;8.736;2023-03-24T03:19:05;6.30;;;3.00;;
72117;SDS011;59992;47.490;8.736;2023-03-24T03:21:57;4.20;;;2.70;;
72117;SDS011;59992;47.490;8.736;2023-03-24T03:24:50;4.60;;;2.80;;
72117;SDS011;59992;47.490;8.736;2023-03-24T03:27:42;6.50;;;3.10;;
72117;SDS011;59992;47.490;8.736;2023-03-24T03:30:34;5.20;;;3.00;;
72117;SDS011;59992;47.490;8.736;2023-03-24T03:33:28;5.00;;;2.80;;
72117;SDS011;59992;47.490;8.736;2023-03-24T03:36:23;4.80;;;2.40;;
72117;SDS011;59992;47.490;8.736;2023-03-24T03:39:17;4.10;;;2.90;;
72117;SDS011;59992;47.490;8.736;2023-03-24T03:42:10;4.50;;;2.60;;
72117;SDS011;59992;47.490;8.736;2023-03-24T03:44:58;5.70;;;3.20;;
72117;SDS011;59992;47.490;8.736;2023-03-24T03:47:47;6.10;;;2.40;;
72117;SDS011;59992;47.490;8.736;2023-03-24T03:50:36;4.90;;;2.90;;
72117;SDS011;59992;47.490;8.736;2023-03-24T03:53:25;5.90;;;2.60;;
72117;SDS011;59992;47.490;8.736;2023-03-24T03:56:21;5.30;;;3.50;;
72117;SDS011;59992;47.490;8.736;2023-03-24T03:59:21;6.00;;;3.50;;
72117;SDS011;59992;47.490;8.736;2023-03-24T04:02:15;9.30;;;3.30;;
72117;SDS011;59992;47.490;8.736;2023-03-24T04:05:17;6.50;;;3.70;;
72117;SDS011;59992;47.490;8.736;2023-03-24T04:08:23;6.00;;;3.70;;
72117;SDS011;59992;47.490;8.736;2023-03-24T04:11:23;6.20;;;3.20;;
72117;SDS011;59992;47.490;8.736;2023-03-24T04:14:39;5.10;;;3.20;;
72117;SDS011;59992;47.490;8.736;2023-03-24T04:17:54;4.30;;;2.60;;
72117;SDS011;59992;47.490;8.736;2023-03-24T04:21:02;5.20;;;2.70;;
72117;SDS011;59992;47.490;8.736;2023-03-24T04:24:01;6.90;;;3.70;;
72117;SDS011;59992;47.490;8.736;2023-03-24T04:27:03;6.30;;;3.50;;
72117;SDS011;59992;47.490;8.736;2023-03-24T04:30:02;5.30;;;3.60;;
72117;SDS011;59992;47.490;8.736;2023-03-24T04:33:00;6.70;;;3.50;;
72117;SDS011;59992;47.490;8.736;2023-03-24T04:35:56;5.30;;;3.40;;
72117;SDS011;59992;47.490;8.736;2023-03-24T04:38:51;5.90;;;3.60;;
72117;SDS011;59992;47.490;8.736;2023-03-24T04:41:43;8.10;;;3.50;;
72117;SDS011;59992;47.490;8.736;2023-03-24T04:44:33;5.10;;;3.20;;
72117;SDS011;59992;47.490;8.736;2023-03-24T04:47:23;6.20;;;3.00;;
72117;SDS011;59992;47.490;8.736;2023-03-24T04:50:16;5.50;;;3.20;;
72117;SDS011;59992;47.490;8.736;2023-03-24T04:53:16;6.30;;;3.20;;
72117;SDS011;59992;47.490;8.736;2023-03-24T04:56:09;5.80;;;3.10;;
72117;SDS011;59992;47.490;8.736;2023-03-24T04:59:12;5.70;;;3.40;;
72117;SDS011;59992;47.490;8.736;2023-03-24T05:02:00;5.20;;;3.40;;
72117;SDS011;59992;47.490;8.736;2023-03-24T05:04:49;7.40;;;3.90;;
72117;SDS011;59992;47.490;8.736;2023-03-24T05:07:38;4.70;;;3.20;;
72117;SDS011;59992;47.490;8.736;2023-03-24T05:10:26;6.50;;;3.50;;
72117;SDS011;59992;47.490;8.736;2023-03-24T05:13:14;5.30;;;2.90;;
72117;SDS011;59992;47.490;8.736;2023-03-24T05:16:03;4.70;;;2.80;;
72117;SDS011;59992;47.490;8.736;2023-03-24T05:18:52;6.40;;;3.10;;
72117;SDS011;59992;47.490;8.736;2023-03-24T05:21:40;7.70;;;3.60;;
72117;SDS011;59992;47.490;8.736;2023-03-24T05:24:28;5.50;;;3.10;;
72117;SDS011;59992;47.490;8.736;2023-03-24T05:27:16;4.40;;;2.40;;
72117;SDS011;59992;47.490;8.736;2023-03-24T05:30:06;7.30;;;3.30;;
72117;SDS011;59992;47.490;8.736;2023-03-24T05:32:55;6.90;;;3.60;;
72117;SDS011;59992;47.490;8.736;2023-03-24T05:35:42;5.40;;;3.50;;
72117;SDS011;59992;47.490;8.736;2023-03-24T05:38:31;6.30;;;2.90;;
72117;SDS011;59992;47.490;8.736;2023-03-24T05:41:19;5.00;;;2.70;;
72117;SDS011;59992;47.490;8.736;2023-03-24T05:44:07;8.80;;;3.50;;
72117;SDS011;59992;47.490;8.736;2023-03-24T05:46:55;5.20;;;3.40;;
72117;SDS011;59992;47.490;8.736;2023-03-24T05:49:43;4.40;;;2.80;;
72117;SDS011;59992;47.490;8.736;2023-03-24T05:52:32;5.90;;;3.10;;
72117;SDS011;59992;47.490;8.736;2023-03-24T05:55:20;5.70;;;3.30;;
72117;SDS011;59992;47.490;8.736;2023-03-24T05:58:08;5.80;;;3.30;;
72117;SDS011;59992;47.490;8.736;2023-03-24T06:00:57;6.30;;;3.20;;
72117;SDS011;59992;47.490;8.736;2023-03-24T06:03:45;5.90;;;3.50;;
72117;SDS011;59992;47.490;8.736;2023-03-24T06:06:34;5.80;;;3.00;;
72117;SDS011;59992;47.490;8.736;2023-03-24T06:09:24;5.50;;;3.20;;
72117;SDS011;59992;47.490;8.736;2023-03-24T06:12:14;8.10;;;4.00;;
72117;SDS011;59992;47.490;8.736;2023-03-24T06:15:03;7.70;;;3.80;;
72117;SDS011;59992;47.490;8.736;2023-03-24T06:17:53;6.30;;;3.60;;
72117;SDS011;59992;47.490;8.736;2023-03-24T06:20:42;6.30;;;3.60;;
72117;SDS011;59992;47.490;8.736;2023-03-24T06:23:30;5.50;;;3.60;;
72117;SDS011;59992;47.490;8.736;2023-03-24T06:26:19;6.00;;;3.40;;
72117;SDS011;59992;47.490;8.736;2023-03-24T06:29:07;7.00;;;3.70;;
72117;SDS011;59992;47.490;8.736;2023-03-24T06:31:55;6.40;;;3.50;;
72117;SDS011;59992;47.490;8.736;2023-03-24T06:34:43;5.40;;;2.90;;
72117;SDS011;59992;47.490;8.736;2023-03-24T06:37:32;7.50;;;3.80;;
72117;SDS011;59992;47.490;8.736;2023-03-24T06:40:20;6.90;;;3.80;;
72117;SDS011;59992;47.490;8.736;2023-03-24T06:43:08;5.10;;;2.90;;
72117;SDS011;59992;47.490;8.736;2023-03-24T06:45:56;5.80;;;3.30;;
72117;SDS011;59992;47.490;8.736;2023-03-24T06:48:45;5.00;;;3.10;;
72117;SDS011;59992;47.490;8.736;2023-03-24T06:51:34;6.10;;;3.40;;
72117;SDS011;59992;47.490;8.736;2023-03-24T06:54:22;5.90;;;3.20;;
72117;SDS011;59992;47.490;8.736;2023-03-24T06:57:11;8.40;;;4.00;;
72117;SDS011;59992;47.490;8.736;2023-03-24T06:59:59;4.80;;;3.30;;
72117;SDS011;59992;47.490;8.736;2023-03-24T07:02:51;6.20;;;4.00;;
72117;SDS011;59992;47.490;8.736;2023-03-24T07:05:39;6.30;;;3.70;;
72117;SDS011;59992;47.490;8.736;2023-03-24T07:08:29;7.20;;;3.80;;
72117;SDS011;59992;47.490;8.736;2023-03-24T07:11:16;6.80;;;3.30;;
72117;SDS011;59992;47.490;8.736;2023-03-24T07:14:05;6.20;;;3.20;;
72117;SDS011;59992;47.490;8.736;2023-03-24T07:16:53;6.00;;;3.70;;
72117;SDS011;59992;47.490;8.736;2023-03-24T07:19:41;6.30;;;3.90;;
72117;SDS011;59992;47.490;8.736;2023-03-24T07:22:31;6.70;;;3.80;;
72117;SDS011;59992;47.490;8.736;2023-03-24T07:25:21;7.90;;;3.90;;
72117;SDS011;59992;47.490;8.736;2023-03-24T07:28:10;7.10;;;3.60;;
72117;SDS011;59992;47.490;8.736;2023-03-24T07:31:01;5.60;;;2.90;;
72117;SDS011;59992;47.490;8.736;2023-03-24T07:33:49;5.00;;;3.40;;
72117;SDS011;59992;47.490;8.736;2023-03-24T07:36:37;6.80;;;3.80;;
72117;SDS011;59992;47.490;8.736;2023-03-24T07:39:26;5.80;;;3.40;;
72117;SDS011;59992;47.490;8.736;2023-03-24T07:42:13;6.40;;;3.40;;
72117;SDS011;59992;47.490;8.736;2023-03-24T07:45:02;6.20;;;4.00;;
72117;SDS011;59992;47.490;8.736;2023-03-24T07:47:51;4.80;;;3.10;;
72117;SDS011;59992;47.490;8.736;2023-03-24T07:50:39;7.20;;;3.60;;
72117;SDS011;59992;47.490;8.736;2023-03-24T07:53:27;5.80;;;3.30;;
72117;SDS011;59992;47.490;8.736;2023-03-24T07:56:16;4.70;;;3.10;;
72117;SDS011;59992;47.490;8.736;2023-03-24T07:59:04;5.80;;;2.80;;
72117;SDS011;59992;47.490;8.736;2023-03-24T08:01:52;5.30;;;3.60;;
72117;SDS011;59992;47.490;8.736;2023-03-24T08:04:40;7.30;;;2.90;;
72117;SDS011;59992;47.490;8.736;2023-03-24T08:07:28;5.10;;;3.50;;
72117;SDS011;59992;47.490;8.736;2023-03-24T08:10:17;5.90;;;3.60;;
72117;SDS011;59992;47.490;8.736;2023-03-24T08:13:06;5.60;;;3.20;;
72117;SDS011;59992;47.490;8.736;2023-03-24T08:15:54;7.00;;;3.10;;
72117;SDS011;59992;47.490;8.736;2023-03-24T08:18:42;6.40;;;3.40;;
72117;SDS011;59992;47.490;8.736;2023-03-24T08:21:30;6.70;;;3.70;;
72117;SDS011;59992;47.490;8.736;2023-03-24T08:24:19;7.60;;;3.90;;
72117;SDS011;59992;47.490;8.736;2023-03-24T08:27:07;8.60;;;3.40;;
72117;SDS011;59992;47.490;8.736;2023-03-24T08:29:56;4.90;;;3.40;;
72117;SDS011;59992;47.490;8.736;2023-03-24T08:32:45;5.70;;;3.60;;
72117;SDS011;59992;47.490;8.736;2023-03-24T08:35:34;6.80;;;4.00;;
72117;SDS011;59992;47.490;8.736;2023-03-24T08:38:24;8.40;;;3.60;;
72117;SDS011;59992;47.490;8.736;2023-03-24T08:41:16;8.90;;;4.30;;
72117;SDS011;59992;47.490;8.736;2023-03-24T08:44:04;6.00;;;3.80;;
72117;SDS011;59992;47.490;8.736;2023-03-24T08:46:54;6.40;;;3.80;;
72117;SDS011;59992;47.490;8.736;2023-03-24T08:49:42;6.50;;;3.50;;
72117;SDS011;59992;47.490;8.736;2023-03-24T08:52:30;8.00;;;3.80;;
72117;SDS011;59992;47.490;8.736;2023-03-24T08:55:18;7.20;;;3.80;;
72117;SDS011;59992;47.490;8.736;2023-03-24T08:58:08;8.70;;;4.20;;
72117;SDS011;59992;47.490;8.736;2023-03-24T09:01:01;5.60;;;3.60;;
72117;SDS011;59992;47.490;8.736;2023-03-24T09:03:49;6.90;;;4.00;;
72117;SDS011;59992;47.490;8.736;2023-03-24T09:06:37;5.90;;;3.70;;
72117;SDS011;59992;47.490;8.736;2023-03-24T09:09:26;6.80;;;3.50;;
72117;SDS011;59992;47.490;8.736;2023-03-24T09:12:15;6.00;;;3.70;;
72117;SDS011;59992;47.490;8.736;2023-03-24T09:15:04;6.10;;;3.70;;
72117;SDS011;59992;47.490;8.736;2023-03-24T09:17:54;6.30;;;3.60;;
72117;SDS011;59992;47.490;8.736;2023-03-24T09:20:42;5.60;;;3.80;;
72117;SDS011;59992;47.490;8.736;2023-03-24T09:23:30;8.90;;;4.40;;
72117;SDS011;59992;47.490;8.736;2023-03-24T09:26:19;6.10;;;4.10;;
72117;SDS011;59992;47.490;8.736;2023-03-24T09:29:08;5.80;;;3.70;;
72117;SDS011;59992;47.490;8.736;2023-03-24T09:31:57;7.00;;;4.00;;
72117;SDS011;59992;47.490;8.736;2023-03-24T09:34:46;7.70;;;4.40;;
72117;SDS011;59992;47.490;8.736;2023-03-24T09:37:35;8.30;;;3.90;;
72117;SDS011;59992;47.490;8.736;2023-03-24T09:40:25;7.00;;;3.70;;
72117;SDS011;59992;47.490;8.736;2023-03-24T09:43:17;5.30;;;3.30;;
72117;SDS011;59992;47.490;8.736;2023-03-24T09:46:12;6.30;;;3.70;;
72117;SDS011;59992;47.490;8.736;2023-03-24T09:49:06;5.70;;;3.70;;
72117;SDS011;59992;47.490;8.736;2023-03-24T09:52:04;5.60;;;3.80;;
72117;SDS011;59992;47.490;8.736;2023-03-24T09:54:54;8.10;;;3.00;;
72117;SDS011;59992;47.490;8.736;2023-03-24T09:57:44;6.60;;;3.60;;
72117;SDS011;59992;47.490;8.736;2023-03-24T10:00:35;6.40;;;4.00;;
72117;SDS011;59992;47.490;8.736;2023-03-24T10:03:24;6.50;;;3.80;;
72117;SDS011;59992;47.490;8.736;2023-03-24T10:06:15;6.60;;;4.00;;
72117;SDS011;59992;47.490;8.736;2023-03-24T10:09:16;6.50;;;4.10;;
72117;SDS011;59992;47.490;8.736;2023-03-24T10:12:13;7.00;;;4.10;;
72117;SDS011;59992;47.490;8.736;2023-03-24T10:15:11;7.50;;;4.50;;
72117;SDS011;59992;47.490;8.736;2023-03-24T10:18:13;8.20;;;4.00;;
72117;SDS011;59992;47.490;8.736;2023-03-24T10:21:11;5.90;;;4.20;;
72117;SDS011;59992;47.490;8.736;2023-03-24T10:24:05;7.50;;;4.20;;
72117;SDS011;59992;47.490;8.736;2023-03-24T10:27:01;7.70;;;4.20;;
72117;SDS011;59992;47.490;8.736;2023-03-24T10:29:59;8.20;;;4.80;;
72117;SDS011;59992;47.490;8.736;2023-03-24T10:32:54;6.60;;;4.00;;
72117;SDS011;59992;47.490;8.736;2023-03-24T10:35:45;7.50;;;4.60;;
72117;SDS011;59992;47.490;8.736;2023-03-24T10:38:41;8.20;;;4.30;;
72117;SDS011;59992;47.490;8.736;2023-03-24T10:41:30;6.70;;;4.30;;
72117;SDS011;59992;47.490;8.736;2023-03-24T10:44:20;6.20;;;4.50;;
72117;SDS011;59992;47.490;8.736;2023-03-24T10:47:09;8.80;;;4.70;;
72117;SDS011;59992;47.490;8.736;2023-03-24T10:50:00;7.40;;;4.80;;
72117;SDS011;59992;47.490;8.736;2023-03-24T10:52:55;4.80;;;3.30;;
72117;SDS011;59992;47.490;8.736;2023-03-24T10:55:43;6.90;;;4.50;;
72117;SDS011;59992;47.490;8.736;2023-03-24T10:58:35;8.10;;;4.70;;
72117;SDS011;59992;47.490;8.736;2023-03-24T11:01:27;9.50;;;4.60;;
72117;SDS011;59992;47.490;8.736;2023-03-24T11:04:16;7.50;;;4.30;;
72117;SDS011;59992;47.490;8.736;2023-03-24T11:07:13;5.30;;;3.50;;
72117;SDS011;59992;47.490;8.736;2023-03-24T11:10:06;6.80;;;4.20;;
72117;SDS011;59992;47.490;8.736;2023-03-24T11:13:02;7.50;;;4.30;;
72117;SDS011;59992;47.490;8.736;2023-03-24T11:15:54;6.20;;;3.60;;
72117;SDS011;59992;47.490;8.736;2023-03-24T11:18:56;7.50;;;4.60;;
72117;SDS011;59992;47.490;8.736;2023-03-24T11:21:46;8.10;;;4.30;;
72117;SDS011;59992;47.490;8.736;2023-03-24T11:24:35;8.20;;;4.10;;
72117;SDS011;59992;47.490;8.736;2023-03-24T11:27:24;6.50;;;3.90;;
72117;SDS011;59992;47.490;8.736;2023-03-24T11:30:13;7.70;;;3.80;;
72117;SDS011;59992;47.490;8.736;2023-03-24T11:33:02;6.60;;;4.20;;
72117;SDS011;59992;47.490;8.736;2023-03-24T11:35:50;6.10;;;3.40;;
72117;SDS011;59992;47.490;8.736;2023-03-24T11:38:39;4.70;;;3.20;;
72117;SDS011;59992;47.490;8.736;2023-03-24T11:41:27;6.70;;;3.00;;
72117;SDS011;59992;47.490;8.736;2023-03-24T11:44:16;3.30;;;2.00;;
72117;SDS011;59992;47.490;8.736;2023-03-24T11:47:07;4.60;;;2.10;;
72117;SDS011;59992;47.490;8.736;2023-03-24T11:50:03;3.20;;;2.10;;
72117;SDS011;59992;47.490;8.736;2023-03-24T11:53:02;2.60;;;2.00;;
72117;SDS011;59992;47.490;8.736;2023-03-24T11:55:58;3.70;;;2.40;;
72117;SDS011;59992;47.490;8.736;2023-03-24T11:58:54;3.50;;;1.90;;
72117;SDS011;59992;47.490;8.736;2023-03-24T12:01:47;3.50;;;2.00;;
72117;SDS011;59992;47.490;8.736;2023-03-24T12:04:49;3.00;;;1.70;;
72117;SDS011;59992;47.490;8.736;2023-03-24T12:08:08;1.90;;;1.40;;
72117;SDS011;59992;47.490;8.736;2023-03-24T12:11:14;2.20;;;1.20;;
72117;SDS011;59992;47.490;8.736;2023-03-24T12:14:08;2.80;;;1.30;;
72117;SDS011;59992;47.490;8.736;2023-03-24T12:16:57;1.30;;;0.90;;
72117;SDS011;59992;47.490;8.736;2023-03-24T12:20:07;2.40;;;1.30;;
72117;SDS011;59992;47.490;8.736;2023-03-24T12:23:06;1.70;;;0.80;;
72117;SDS011;59992;47.490;8.736;2023-03-24T12:26:09;1.40;;;0.80;;
72117;SDS011;59992;47.490;8.736;2023-03-24T12:29:09;2.20;;;0.70;;
72117;SDS011;59992;47.490;8.736;2023-03-24T12:32:16;1.40;;;0.80;;
72117;SDS011;59992;47.490;8.736;2023-03-24T12:38:33;1.10;;;0.70;;
72117;SDS011;59992;47.490;8.736;2023-03-24T12:41:48;0.90;;;0.50;;
72117;SDS011;59992;47.490;8.736;2023-03-24T12:44:54;0.70;;;0.50;;
72117;SDS011;59992;47.490;8.736;2023-03-24T12:48:02;0.90;;;0.60;;
72117;SDS011;59992;47.490;8.736;2023-03-24T12:51:17;1.00;;;0.60;;
72117;SDS011;59992;47.490;8.736;2023-03-24T12:54:16;1.90;;;0.70;;
72117;SDS011;59992;47.490;8.736;2023-03-24T12:57:14;1.10;;;0.70;;
72117;SDS011;59992;47.490;8.736;2023-03-24T13:00:06;2.60;;;0.70;;
72117;SDS011;59992;47.490;8.736;2023-03-24T13:03:03;1.00;;;0.60;;
72117;SDS011;59992;47.490;8.736;2023-03-24T13:05:58;1.90;;;0.90;;
72117;SDS011;59992;47.490;8.736;2023-03-24T13:09:02;1.30;;;0.60;;
72117;SDS011;59992;47.490;8.736;2023-03-24T13:11:56;0.70;;;0.50;;
72117;SDS011;59992;47.490;8.736;2023-03-24T13:14:49;1.70;;;0.60;;
72117;SDS011;59992;47.490;8.736;2023-03-24T13:17:44;1.10;;;0.80;;
72117;SDS011;59992;47.490;8.736;2023-03-24T13:20:39;1.70;;;0.70;;
72117;SDS011;59992;47.490;8.736;2023-03-24T13:23:44;1.00;;;0.60;;
72117;SDS011;59992;47.490;8.736;2023-03-24T13:26:41;1.10;;;0.60;;
72117;SDS011;59992;47.490;8.736;2023-03-24T13:29:45;2.20;;;0.60;;
72117;SDS011;59992;47.490;8.736;2023-03-24T13:32:40;1.10;;;0.80;;
72117;SDS011;59992;47.490;8.736;2023-03-24T13:35:37;1.30;;;0.70;;
72117;SDS011;59992;47.490;8.736;2023-03-24T13:38:37;2.10;;;0.60;;
72117;SDS011;59992;47.490;8.736;2023-03-24T13:41:32;3.50;;;0.60;;
72117;SDS011;59992;47.490;8.736;2023-03-24T13:44:23;1.30;;;0.90;;
72117;SDS011;59992;47.490;8.736;2023-03-24T13:47:14;1.30;;;0.90;;
72117;SDS011;59992;47.490;8.736;2023-03-24T13:50:04;3.50;;;0.80;;
72117;SDS011;59992;47.490;8.736;2023-03-24T13:53:10;1.10;;;0.70;;
72117;SDS011;59992;47.490;8.736;2023-03-24T13:56:00;1.50;;;0.60;;
72117;SDS011;59992;47.490;8.736;2023-03-24T13:59:22;3.90;;;0.90;;
72117;SDS011;59992;47.490;8.736;2023-03-24T14:02:23;2.20;;;0.80;;
72117;SDS011;59992;47.490;8.736;2023-03-24T14:05:33;3.70;;;0.80;;
72117;SDS011;59992;47.490;8.736;2023-03-24T14:08:34;4.10;;;0.60;;
72117;SDS011;59992;47.490;8.736;2023-03-24T14:11:42;2.50;;;0.70;;
72117;SDS011;59992;47.490;8.736;2023-03-24T14:14:35;2.40;;;0.80;;
72117;SDS011;59992;47.490;8.736;2023-03-24T14:17:44;1.60;;;0.80;;
72117;SDS011;59992;47.490;8.736;2023-03-24T14:20:35;2.60;;;0.80;;
72117;SDS011;59992;47.490;8.736;2023-03-24T14:23:30;3.10;;;0.90;;
72117;SDS011;59992;47.490;8.736;2023-03-24T14:26:28;1.10;;;0.80;;
72117;SDS011;59992;47.490;8.736;2023-03-24T14:32:25;2.70;;;0.80;;
72117;SDS011;59992;47.490;8.736;2023-03-24T14:35:21;3.20;;;1.10;;
72117;SDS011;59992;47.490;8.736;2023-03-24T14:38:20;2.40;;;1.00;;
72117;SDS011;59992;47.490;8.736;2023-03-24T14:41:13;2.10;;;0.80;;
72117;SDS011;59992;47.490;8.736;2023-03-24T14:44:03;1.60;;;0.80;;
72117;SDS011;59992;47.490;8.736;2023-03-24T14:46:52;3.20;;;1.10;;
72117;SDS011;59992;47.490;8.736;2023-03-24T14:49:45;2.20;;;0.80;;
72117;SDS011;59992;47.490;8.736;2023-03-24T14:52:39;1.90;;;1.20;;
72117;SDS011;59992;47.490;8.736;2023-03-24T14:55:29;1.90;;;1.10;;
72117;SDS011;59992;47.490;8.736;2023-03-24T14:58:19;2.20;;;1.10;;
72117;SDS011;59992;47.490;8.736;2023-03-24T15:01:12;2.00;;;1.20;;
72117;SDS011;59992;47.490;8.736;2023-03-24T15:04:04;2.80;;;1.30;;
72117;SDS011;59992;47.490;8.736;2023-03-24T15:06:55;3.80;;;1.20;;
72117;SDS011;59992;47.490;8.736;2023-03-24T15:09:47;2.10;;;1.20;;
72117;SDS011;59992;47.490;8.736;2023-03-24T15:12:37;2.50;;;1.20;;
72117;SDS011;59992;47.490;8.736;2023-03-24T15:15:28;2.00;;;1.10;;
72117;SDS011;59992;47.490;8.736;2023-03-24T15:18:17;2.70;;;1.50;;
72117;SDS011;59992;47.490;8.736;2023-03-24T15:21:13;2.80;;;1.00;;
72117;SDS011;59992;47.490;8.736;2023-03-24T15:24:03;2.10;;;1.10;;
72117;SDS011;59992;47.490;8.736;2023-03-24T15:27:17;1.70;;;0.90;;
72117;SDS011;59992;47.490;8.736;2023-03-24T15:30:12;3.10;;;1.40;;
72117;SDS011;59992;47.490;8.736;2023-03-24T15:33:02;2.00;;;1.30;;
72117;SDS011;59992;47.490;8.736;2023-03-24T15:35:53;3.00;;;1.30;;
72117;SDS011;59992;47.490;8.736;2023-03-24T15:38:44;2.20;;;1.20;;
72117;SDS011;59992;47.490;8.736;2023-03-24T15:41:34;1.70;;;1.10;;
72117;SDS011;59992;47.490;8.736;2023-03-24T15:44:24;3.10;;;1.30;;
72117;SDS011;59992;47.490;8.736;2023-03-24T15:47:18;1.50;;;0.90;;
72117;SDS011;59992;47.490;8.736;2023-03-24T15:53:25;3.60;;;0.90;;
72117;SDS011;59992;47.490;8.736;2023-03-24T15:56:25;3.10;;;1.10;;
72117;SDS011;59992;47.490;8.736;2023-03-24T15:59:14;2.20;;;0.90;;
72117;SDS011;59992;47.490;8.736;2023-03-24T16:02:03;1.30;;;0.70;;
72117;SDS011;59992;47.490;8.736;2023-03-24T16:05:00;1.10;;;0.60;;
72117;SDS011;59992;47.490;8.736;2023-03-24T16:07:55;0.60;;;0.50;;
72117;SDS011;59992;47.490;8.736;2023-03-24T16:10:55;1.10;;;0.60;;
72117;SDS011;59992;47.490;8.736;2023-03-24T16:13:44;1.10;;;0.70;;
72117;SDS011;59992;47.490;8.736;2023-03-24T16:16:35;1.60;;;0.50;;
72117;SDS011;59992;47.490;8.736;2023-03-24T16:19:24;1.90;;;0.60;;
72117;SDS011;59992;47.490;8.736;2023-03-24T16:22:12;3.80;;;0.60;;
72117;SDS011;59992;47.490;8.736;2023-03-24T16:25:01;1.00;;;0.60;;
72117;SDS011;59992;47.490;8.736;2023-03-24T16:27:49;1.60;;;0.60;;
72117;SDS011;59992;47.490;8.736;2023-03-24T16:30:38;2.40;;;0.80;;
72117;SDS011;59992;47.490;8.736;2023-03-24T16:33:27;1.80;;;0.50;;
72117;SDS011;59992;47.490;8.736;2023-03-24T16:36:16;1.60;;;0.60;;
72117;SDS011;59992;47.490;8.736;2023-03-24T16:39:08;1.60;;;1.10;;
72117;SDS011;59992;47.490;8.736;2023-03-24T16:42:01;1.60;;;0.90;;
72117;SDS011;59992;47.490;8.736;2023-03-24T16:44:49;1.60;;;1.00;;
72117;SDS011;59992;47.490;8.736;2023-03-24T16:47:37;2.30;;;0.80;;
72117;SDS011;59992;47.490;8.736;2023-03-24T16:50:27;1.10;;;0.80;;
72117;SDS011;59992;47.490;8.736;2023-03-24T16:53:18;2.60;;;0.70;;
72117;SDS011;59992;47.490;8.736;2023-03-24T16:56:08;1.30;;;0.80;;
72117;SDS011;59992;47.490;8.736;2023-03-24T16:58:58;1.70;;;0.90;;
72117;SDS011;59992;47.490;8.736;2023-03-24T17:01:47;1.00;;;0.70;;
72117;SDS011;59992;47.490;8.736;2023-03-24T17:04:39;1.60;;;0.70;;
72117;SDS011;59992;47.490;8.736;2023-03-24T17:07:28;1.30;;;0.80;;
72117;SDS011;59992;47.490;8.736;2023-03-24T17:10:16;1.80;;;1.00;;
72117;SDS011;59992;47.490;8.736;2023-03-24T17:13:04;1.60;;;0.90;;
72117;SDS011;59992;47.490;8.736;2023-03-24T17:15:55;2.30;;;0.80;;
72117;SDS011;59992;47.490;8.736;2023-03-24T17:18:47;2.50;;;0.90;;
72117;SDS011;59992;47.490;8.736;2023-03-24T17:21:37;3.10;;;1.20;;
72117;SDS011;59992;47.490;8.736;2023-03-24T17:24:31;1.90;;;0.90;;
72117;SDS011;59992;47.490;8.736;2023-03-24T17:27:22;2.00;;;1.30;;
72117;SDS011;59992;47.490;8.736;2023-03-24T17:30:14;2.60;;;1.10;;
72117;SDS011;59992;47.490;8.736;2023-03-24T17:33:03;1.60;;;1.00;;
72117;SDS011;59992;47.490;8.736;2023-03-24T17:35:53;2.40;;;1.40;;
72117;SDS011;59992;47.490;8.736;2023-03-24T17:38:41;2.90;;;1.20;;